createdAt,value
2022-12-13T00:01:16.918Z,15.02
2022-12-13T00:06:18.419Z,15.38
2022-12-13T00:11:20.627Z,19.55
2022-12-13T00:16:24.565Z,12.05
2022-12-13T00:21:29.307Z,18.55
2022-12-13T00:26:32.139Z,10.32
2022-12-13T00:36:56.440Z,16.13
2022-12-13T00:41:57.946Z,10.77
2022-12-13T00:46:59.494Z,19.52
2022-12-13T00:52:01.041Z,25.80
2022-12-13T00:57:02.704Z,14.70
2022-12-13T01:02:04.400Z,13.93
2022-12-13T01:07:05.930Z,12.98
2022-12-13T01:12:07.425Z,13.93
2022-12-13T01:17:09.013Z,14.50
2022-12-13T01:22:10.679Z,17.42
2022-12-13T01:27:12.171Z,14.98
2022-12-13T01:32:13.670Z,18.92
2022-12-13T01:37:15.130Z,19.02
2022-12-13T01:42:16.847Z,18.83
2022-12-13T01:47:24.550Z,15.52
2022-12-13T01:52:26.196Z,13.55
2022-12-13T01:57:28.007Z,16.42
2022-12-13T02:02:29.706Z,17.50
2022-12-13T02:07:34.895Z,15.52
2022-12-13T02:12:38.074Z,15.03
2022-12-13T02:17:45.823Z,18.30
2022-12-13T02:23:07.041Z,14.40
2022-12-13T02:28:30.295Z,13.32
2022-12-13T02:33:56.187Z,13.15
2022-12-13T02:39:03.409Z,17.25
2022-12-13T02:44:26.606Z,14.05
2022-12-13T02:49:31.907Z,19.85
2022-12-13T02:54:33.627Z,19.67
2022-12-13T02:59:39.327Z,22.00
2022-12-13T03:05:08.198Z,21.02
2022-12-13T03:10:18.297Z,23.63
2022-12-13T03:15:38.315Z,17.90
2022-12-13T03:20:39.972Z,15.00
2022-12-13T03:25:41.599Z,18.38
2022-12-13T03:30:43.095Z,15.57
2022-12-13T03:35:45.756Z,13.43
2022-12-13T03:40:47.759Z,23.20
2022-12-13T03:45:50.174Z,24.13
2022-12-13T03:50:53.915Z,19.42
2022-12-13T03:55:55.373Z,26.58
2022-12-13T04:00:56.831Z,21.98
2022-12-13T04:05:58.507Z,18.20
2022-12-13T04:11:00.120Z,24.25
2022-12-13T04:16:02.993Z,21.02
2022-12-13T04:21:04.723Z,16.52
2022-12-13T04:26:06.292Z,15.77
2022-12-13T04:31:07.809Z,14.32
2022-12-13T04:36:09.335Z,26.30
2022-12-13T04:41:16.131Z,17.77
2022-12-13T04:46:18.439Z,23.25
2022-12-13T04:51:20.125Z,23.60
2022-12-13T04:56:21.599Z,18.77
2022-12-13T05:01:23.434Z,22.13
2022-12-13T05:06:26.685Z,19.70
2022-12-13T05:11:35.852Z,15.73
2022-12-13T05:16:37.682Z,21.15
2022-12-13T05:21:39.182Z,20.60
2022-12-13T05:26:40.710Z,19.00
2022-12-13T05:31:42.149Z,18.27
2022-12-13T05:36:43.582Z,21.10
2022-12-13T05:41:45.138Z,23.50
2022-12-13T05:46:46.622Z,17.98
2022-12-13T05:51:48.207Z,15.73
2022-12-13T05:56:49.675Z,17.55
2022-12-13T06:01:51.173Z,15.30
2022-12-13T06:06:52.924Z,19.27
2022-12-13T06:12:01.340Z,19.83
2022-12-13T06:17:03.930Z,25.25
2022-12-13T06:22:05.454Z,19.50
2022-12-13T06:27:06.899Z,21.45
2022-12-13T06:32:09.056Z,22.83
2022-12-13T06:37:14.534Z,16.73
2022-12-13T06:42:22.338Z,20.08
2022-12-13T06:47:32.412Z,44.67
2022-12-13T06:52:40.430Z,48.50
2022-12-13T06:57:52.739Z,35.00
2022-12-13T07:03:09.541Z,25.08
2022-12-13T07:08:14.524Z,17.95
2022-12-13T07:13:30.480Z,16.50
2022-12-13T07:18:42.246Z,25.42
2022-12-13T07:23:55.538Z,27.88
2022-12-13T07:35:01.472Z,29.50
2022-12-13T07:40:24.481Z,27.97
2022-12-13T07:45:26.499Z,36.42
2022-12-13T07:50:27.978Z,44.30
2022-12-13T07:55:38.523Z,31.70
2022-12-13T08:00:46.325Z,38.90
2022-12-13T08:05:48.220Z,45.05
2022-12-13T08:10:49.733Z,33.63
2022-12-13T08:15:51.401Z,28.45
2022-12-13T08:20:53.412Z,22.05
2022-12-13T08:25:55.538Z,23.35
2022-12-13T08:31:03.479Z,18.15
2022-12-13T08:36:12.226Z,18.73
2022-12-13T08:41:14.074Z,25.70
2022-12-13T08:46:15.808Z,23.88
2022-12-13T08:51:24.622Z,20.45
2022-12-13T08:56:28.170Z,18.55
2022-12-13T09:01:29.627Z,24.00
2022-12-13T09:06:31.233Z,13.73
2022-12-13T09:11:34.849Z,25.58
2022-12-13T09:16:38.332Z,19.83
2022-12-13T09:21:39.938Z,22.60
2022-12-13T09:26:44.670Z,24.23
2022-12-13T09:31:52.678Z,28.52
2022-12-13T09:36:54.695Z,20.23
2022-12-13T09:42:10.689Z,17.65
2022-12-13T09:47:46.953Z,20.63
2022-12-13T09:52:49.176Z,22.98
2022-12-13T09:57:52.266Z,20.17
2022-12-13T10:02:57.021Z,26.75
2022-12-13T10:08:03.896Z,17.20
2022-12-13T10:13:25.074Z,21.10
2022-12-13T10:18:41.693Z,27.65
2022-12-13T10:24:22.787Z,20.35
2022-12-13T10:29:06.439Z,17.65
2022-12-13T10:34:20.239Z,24.35
2022-12-13T10:39:44.596Z,30.50
2022-12-13T10:44:46.495Z,21.33
2022-12-13T10:49:52.770Z,20.88
2022-12-13T10:55:23.011Z,27.23
2022-12-13T11:00:34.155Z,28.20
2022-12-13T11:05:37.270Z,25.10
2022-12-13T11:10:39.086Z,30.17
2022-12-13T11:15:41.001Z,27.77
2022-12-13T11:20:54.660Z,28.20
2022-12-13T11:26:05.145Z,23.55
2022-12-13T11:31:26.894Z,27.02
2022-12-13T11:36:34.298Z,29.25
2022-12-13T11:41:47.592Z,24.83
2022-12-13T11:46:55.978Z,21.77
2022-12-13T11:52:02.558Z,22.52
2022-12-13T11:57:13.319Z,23.05
2022-12-13T12:02:38.200Z,20.13
2022-12-13T12:08:12.592Z,20.63
2022-12-13T12:13:29.830Z,18.95
2022-12-13T12:18:31.422Z,18.65
2022-12-13T12:24:01.735Z,15.50
2022-12-13T12:29:13.533Z,17.58
2022-12-13T12:34:33.096Z,16.55
2022-12-13T12:39:50.457Z,16.48
2022-12-13T12:45:55.152Z,18.83
2022-12-13T12:50:55.333Z,10.75
2022-12-13T12:55:59.407Z,13.27
2022-12-13T13:01:23.836Z,13.35
2022-12-13T13:06:38.244Z,11.20
2022-12-13T13:11:43.057Z,9.05
2022-12-13T13:16:45.020Z,11.10
2022-12-13T13:21:51.150Z,6.55
2022-12-13T13:27:19.790Z,11.57
2022-12-13T13:32:29.737Z,8.07
2022-12-13T13:37:48.403Z,11.30
2022-12-13T13:43:32.566Z,8.45
2022-12-13T13:48:59.750Z,32.47
2022-12-13T13:59:48.469Z,6.93
2022-12-13T14:05:08.530Z,9.80
2022-12-13T14:10:22.138Z,7.95
2022-12-13T14:15:35.429Z,4.82
2022-12-13T14:20:58.023Z,8.93
2022-12-13T14:26:18.150Z,10.82
2022-12-13T14:31:31.970Z,10.02
2022-12-13T14:36:35.776Z,12.88
2022-12-13T14:41:46.538Z,10.57
2022-12-13T14:46:56.378Z,11.18
2022-12-13T14:52:33.354Z,9.10
2022-12-13T14:57:35.286Z,11.00
2022-12-13T15:02:36.903Z,4.72
2022-12-13T15:07:41.007Z,8.95
2022-12-13T15:12:44.655Z,9.13
2022-12-13T15:17:46.188Z,5.65
2022-12-13T15:22:47.905Z,10.23
2022-12-13T15:27:51.303Z,11.00
2022-12-13T15:33:02.826Z,10.73
2022-12-13T15:38:04.480Z,9.38
2022-12-13T15:43:06.099Z,14.52
2022-12-13T15:48:22.678Z,14.20
2022-12-13T15:53:27.573Z,6.93
2022-12-13T15:58:35.612Z,7.78
2022-12-13T16:03:44.929Z,10.57
2022-12-13T16:08:51.035Z,14.18
2022-12-13T16:13:58.380Z,8.68
2022-12-13T16:19:01.101Z,8.70
2022-12-13T16:24:02.530Z,12.05
2022-12-13T16:29:08.830Z,10.65
2022-12-13T16:34:10.800Z,16.35
2022-12-13T16:39:12.813Z,16.80
2022-12-13T16:44:27.017Z,12.35
2022-12-13T16:49:30.498Z,15.98
2022-12-13T16:54:32.002Z,15.13
2022-12-13T16:59:33.433Z,18.15
2022-12-13T17:04:35.001Z,9.00
2022-12-13T17:09:36.468Z,10.38
2022-12-13T17:14:38.098Z,13.20
2022-12-13T17:19:39.719Z,14.82
2022-12-13T17:24:41.229Z,19.75
2022-12-13T17:29:42.798Z,19.73
2022-12-13T17:34:44.538Z,22.10
2022-12-13T17:39:46.628Z,9.98
2022-12-13T17:44:48.156Z,13.85
2022-12-13T17:49:49.652Z,8.45
2022-12-13T17:54:51.222Z,15.55
2022-12-13T17:59:52.698Z,12.43
2022-12-13T18:04:54.123Z,14.60
2022-12-13T18:09:55.654Z,8.55
2022-12-13T18:14:57.238Z,18.88
2022-12-13T18:19:58.772Z,12.23
2022-12-13T18:25:00.316Z,16.45
2022-12-13T18:30:01.816Z,17.13
2022-12-13T18:35:03.406Z,17.35
2022-12-13T18:40:05.789Z,18.95
2022-12-13T18:45:07.577Z,45.72
2022-12-13T18:50:09.256Z,24.63
2022-12-13T18:55:10.734Z,15.27
2022-12-13T19:00:12.598Z,15.32
2022-12-13T19:05:14.064Z,18.92
2022-12-13T19:10:15.593Z,24.85
2022-12-13T19:15:17.135Z,20.38
2022-12-13T19:20:18.705Z,22.75
2022-12-13T19:25:20.246Z,27.35
2022-12-13T19:30:21.892Z,17.45
2022-12-13T19:35:23.523Z,15.15
2022-12-13T19:40:25.089Z,11.43
2022-12-13T19:45:26.552Z,15.55
2022-12-13T19:50:29.798Z,10.88
2022-12-13T19:55:31.593Z,8.05
2022-12-13T20:00:33.460Z,15.60
2022-12-13T20:05:36.000Z,10.18
2022-12-13T20:10:38.517Z,9.75
2022-12-13T20:15:46.843Z,11.38
2022-12-13T20:21:10.376Z,10.93
2022-12-13T20:26:15.288Z,12.48
2022-12-13T20:31:20.220Z,8.52
2022-12-13T20:36:25.063Z,18.57
2022-12-13T20:41:29.610Z,14.30
2022-12-13T20:46:31.664Z,8.95
2022-12-13T20:51:34.377Z,15.70
2022-12-13T20:56:38.464Z,12.95
2022-12-13T21:01:41.351Z,11.45
2022-12-13T21:06:42.895Z,19.20
2022-12-13T21:11:46.875Z,14.25
2022-12-13T21:16:56.826Z,17.02
2022-12-13T21:21:58.789Z,24.92
2022-12-13T21:27:00.775Z,22.92
2022-12-13T21:32:02.339Z,18.20
2022-12-13T21:37:03.877Z,30.23
2022-12-13T21:42:05.601Z,25.30
2022-12-13T21:47:12.368Z,25.15
2022-12-13T21:52:14.663Z,21.63
2022-12-13T21:57:16.339Z,13.57
2022-12-13T22:02:19.380Z,11.52
2022-12-13T22:07:21.016Z,16.23
2022-12-13T22:12:22.458Z,12.57
2022-12-13T22:17:33.069Z,19.15
2022-12-13T22:22:38.974Z,24.63
2022-12-13T22:27:40.401Z,16.13
2022-12-13T22:32:41.797Z,12.65
2022-12-13T22:37:43.417Z,18.15
2022-12-13T22:42:48.326Z,12.68
2022-12-13T22:47:50.020Z,16.30
2022-12-13T22:52:51.415Z,11.02
2022-12-13T22:57:52.950Z,11.50
2022-12-13T23:02:54.439Z,16.80
2022-12-13T23:07:55.880Z,9.35
2022-12-13T23:12:57.401Z,16.30
2022-12-13T23:17:58.840Z,8.98
2022-12-13T23:23:00.258Z,13.23
2022-12-13T23:28:01.705Z,7.15
2022-12-13T23:33:03.265Z,7.60
2022-12-13T23:38:04.692Z,9.73
2022-12-13T23:43:06.154Z,8.88
2022-12-13T23:48:07.642Z,7.10
2022-12-13T23:53:09.150Z,10.80
2022-12-13T23:58:11.282Z,8.90
